createdAt,value
2018-09-20T00:01:47.996Z,56.07
2018-09-20T00:04:17.255Z,55.98
2018-09-20T00:06:46.426Z,56.58
2018-09-20T00:09:15.567Z,58.01
2018-09-20T00:11:44.862Z,58.52
2018-09-20T00:14:13.940Z,58.17
2018-09-20T00:16:43.184Z,58.84
2018-09-20T00:19:12.264Z,58.67
2018-09-20T00:21:41.600Z,58.56
2018-09-20T00:24:10.909Z,59.02
2018-09-20T00:26:40.355Z,59.29
2018-09-20T00:29:09.868Z,60.14
2018-09-20T00:31:39.096Z,59.02
2018-09-20T00:34:08.352Z,59.14
2018-09-20T00:36:37.601Z,59.90
2018-09-20T00:39:11.490Z,59.59
2018-09-20T00:41:40.647Z,58.30
2018-09-20T00:44:10.282Z,58.51
2018-09-20T00:46:39.380Z,60.28
2018-09-20T00:49:08.419Z,59.74
2018-09-20T00:51:37.702Z,59.79
2018-09-20T00:54:06.947Z,60.99
2018-09-20T00:56:36.263Z,61.63
2018-09-20T00:59:05.736Z,61.68
2018-09-20T01:01:34.749Z,61.11
2018-09-20T01:04:03.839Z,60.58
2018-09-20T01:06:33.124Z,61.72
2018-09-20T01:09:02.478Z,60.54
2018-09-20T01:11:31.997Z,61.05
2018-09-20T01:14:01.352Z,61.29
2018-09-20T01:16:30.578Z,61.75
2018-09-20T01:18:59.561Z,62.01
2018-09-20T01:21:28.694Z,62.03
2018-09-20T01:23:58.137Z,62.13
2018-09-20T01:26:27.515Z,62.80
2018-09-20T01:28:56.872Z,63.63
2018-09-20T01:31:26.075Z,63.73
2018-09-20T01:33:55.327Z,65.22
2018-09-20T01:36:24.617Z,63.72
2018-09-20T01:38:53.517Z,62.51
2018-09-20T01:41:22.917Z,63.73
2018-09-20T01:43:52.137Z,64.75
2018-09-20T01:46:21.455Z,64.53
2018-09-20T01:48:50.708Z,64.24
2018-09-20T01:51:20.179Z,63.85
2018-09-20T01:53:49.300Z,65.07
2018-09-20T01:56:18.291Z,65.34
2018-09-20T01:58:47.555Z,64.38
2018-09-20T02:01:16.588Z,64.07
2018-09-20T02:03:46.005Z,65.06
2018-09-20T02:06:15.338Z,65.05
2018-09-20T02:08:44.718Z,64.26
2018-09-20T02:11:14.091Z,64.85
2018-09-20T02:13:43.600Z,65.10
2018-09-20T02:16:13.033Z,64.83
2018-09-20T02:18:42.313Z,65.42
2018-09-20T02:21:11.645Z,64.92
2018-09-20T02:23:40.952Z,65.30
2018-09-20T02:26:10.113Z,65.40
2018-09-20T02:28:39.349Z,65.17
2018-09-20T02:31:08.643Z,65.06
2018-09-20T02:33:37.786Z,65.42
2018-09-20T02:36:06.723Z,65.12
2018-09-20T02:38:36.163Z,65.78
2018-09-20T02:41:05.275Z,64.91
2018-09-20T02:43:34.695Z,64.72
2018-09-20T02:46:03.936Z,64.87
2018-09-20T02:48:33.105Z,65.36
2018-09-20T02:51:02.103Z,66.07
2018-09-20T02:53:31.353Z,65.87
2018-09-20T02:56:00.449Z,65.29
2018-09-20T02:58:30.060Z,65.42
2018-09-20T03:00:59.456Z,65.02
2018-09-20T03:03:28.703Z,65.09
2018-09-20T03:05:58.109Z,66.24
2018-09-20T03:08:27.404Z,65.96
2018-09-20T03:10:56.536Z,64.04
2018-09-20T03:13:25.700Z,64.39
2018-09-20T03:15:54.841Z,65.63
2018-09-20T03:18:24.187Z,65.22
2018-09-20T03:20:53.531Z,65.48
2018-09-20T03:23:22.787Z,66.26
2018-09-20T03:25:52.048Z,66.72
2018-09-20T03:28:21.343Z,66.50
2018-09-20T03:30:51.055Z,65.96
2018-09-20T03:33:20.451Z,66.64
2018-09-20T03:35:49.379Z,66.83
2018-09-20T03:38:18.527Z,65.85
2018-09-20T03:40:47.675Z,66.76
2018-09-20T03:43:16.880Z,66.10
2018-09-20T03:45:45.836Z,66.92
2018-09-20T03:48:15.175Z,66.74
2018-09-20T03:50:44.053Z,67.05
2018-09-20T03:53:13.564Z,66.85
2018-09-20T03:55:42.755Z,67.38
2018-09-20T03:58:12.223Z,66.62
2018-09-20T04:00:41.405Z,66.25
2018-09-20T04:03:10.560Z,67.20
2018-09-20T04:05:39.540Z,66.62
2018-09-20T04:08:08.853Z,66.60
2018-09-20T04:10:38.192Z,66.85
2018-09-20T04:13:07.303Z,65.80
2018-09-20T04:15:36.490Z,67.43
2018-09-20T04:18:05.792Z,66.21
2018-09-20T04:20:35.090Z,66.61
2018-09-20T04:23:04.586Z,66.44
2018-09-20T04:25:33.539Z,66.48
2018-09-20T04:28:02.942Z,66.50
2018-09-20T04:30:31.839Z,66.29
2018-09-20T04:33:01.160Z,66.19
2018-09-20T04:35:30.583Z,66.55
2018-09-20T04:37:59.707Z,66.06
2018-09-20T04:40:29.144Z,65.13
2018-09-20T04:42:58.528Z,65.84
2018-09-20T04:45:27.729Z,65.26
2018-09-20T04:47:56.764Z,65.31
2018-09-20T04:50:25.660Z,65.01
2018-09-20T04:52:54.949Z,64.71
2018-09-20T04:55:24.300Z,64.66
2018-09-20T04:57:53.611Z,64.63
2018-09-20T05:00:22.957Z,63.84
2018-09-20T05:02:52.247Z,63.05
2018-09-20T05:05:21.416Z,62.30
2018-09-20T05:07:50.719Z,62.63
2018-09-20T05:10:20.046Z,61.51
2018-09-20T05:12:49.403Z,62.35
2018-09-20T05:15:18.748Z,61.51
2018-09-20T05:17:48.149Z,61.20
2018-09-20T05:20:17.590Z,59.84
2018-09-20T05:22:46.965Z,59.37
2018-09-20T05:25:16.124Z,59.06
2018-09-20T05:27:45.400Z,58.59
2018-09-20T05:30:14.369Z,58.95
2018-09-20T05:32:43.683Z,58.53
2018-09-20T05:35:12.912Z,58.65
2018-09-20T05:37:42.139Z,58.83
2018-09-20T05:40:11.088Z,58.83
2018-09-20T05:42:40.218Z,58.84
2018-09-20T05:45:09.519Z,59.27
2018-09-20T05:47:38.889Z,59.71
2018-09-20T05:50:08.273Z,59.75
2018-09-20T05:52:37.498Z,59.54
2018-09-20T05:55:07.081Z,59.81
2018-09-20T05:57:36.236Z,60.05
2018-09-20T06:00:05.436Z,60.02
2018-09-20T06:02:34.629Z,59.86
2018-09-20T06:05:03.958Z,60.60
2018-09-20T06:07:33.259Z,60.59
2018-09-20T06:10:02.583Z,60.77
2018-09-20T06:12:31.716Z,61.36
2018-09-20T06:15:00.590Z,61.05
2018-09-20T06:17:29.741Z,60.74
2018-09-20T06:19:59.130Z,60.00
2018-09-20T06:22:28.571Z,58.82
2018-09-20T06:24:57.735Z,59.35
2018-09-20T06:27:26.936Z,58.63
2018-09-20T06:29:56.296Z,59.02
2018-09-20T06:32:25.756Z,58.71
2018-09-20T06:34:54.903Z,58.21
2018-09-20T06:37:23.992Z,57.55
2018-09-20T06:39:53.195Z,57.16
2018-09-20T06:42:22.360Z,57.65
2018-09-20T06:44:51.746Z,57.52
2018-09-20T06:47:20.801Z,56.21
2018-09-20T06:49:50.160Z,56.28
2018-09-20T06:52:19.039Z,56.01
2018-09-20T06:54:48.198Z,56.62
2018-09-20T06:57:17.557Z,56.70
2018-09-20T06:59:46.947Z,56.78
2018-09-20T07:02:16.204Z,56.33
2018-09-20T07:04:45.402Z,56.10
2018-09-20T07:07:14.419Z,55.16
2018-09-20T07:09:43.726Z,53.87
2018-09-20T07:12:13.006Z,52.52
2018-09-20T07:14:42.187Z,52.14
2018-09-20T07:17:11.625Z,52.05
2018-09-20T07:19:40.765Z,51.74
2018-09-20T07:22:09.769Z,51.68
2018-09-20T07:24:38.981Z,50.82
2018-09-20T07:27:08.493Z,49.55
2018-09-20T07:29:37.613Z,50.09
2018-09-20T07:32:06.730Z,50.11
2018-09-20T07:34:36.115Z,49.25
2018-09-20T07:37:05.328Z,47.46
2018-09-20T07:39:34.553Z,46.97
2018-09-20T07:42:03.879Z,45.50
2018-09-20T07:44:33.099Z,43.58
2018-09-20T07:47:02.288Z,40.74
2018-09-20T07:49:31.678Z,40.18
2018-09-20T07:52:00.951Z,39.04
2018-09-20T07:54:30.051Z,38.83
2018-09-20T07:59:57.374Z,38.04
2018-09-20T08:02:26.611Z,38.89
2018-09-20T08:04:55.665Z,36.65
2018-09-20T08:07:24.707Z,39.27
2018-09-20T08:09:53.789Z,37.95
2018-09-20T08:12:23.056Z,38.12
2018-09-20T08:14:52.400Z,38.16
2018-09-20T08:17:21.424Z,40.41
2018-09-20T08:19:50.687Z,39.20
2018-09-20T08:22:19.942Z,39.66
2018-09-20T08:24:48.985Z,38.75
2018-09-20T08:27:18.280Z,40.17
2018-09-20T08:29:47.632Z,39.79
2018-09-20T08:32:16.820Z,38.88
2018-09-20T08:34:46.076Z,39.67
2018-09-20T08:37:15.446Z,38.60
2018-09-20T08:39:44.723Z,39.44
2018-09-20T08:42:13.953Z,39.56
2018-09-20T08:44:43.321Z,40.48
2018-09-20T08:47:12.531Z,40.26
2018-09-20T08:49:41.532Z,41.29
2018-09-20T08:52:10.683Z,40.35
2018-09-20T08:54:39.976Z,39.70
2018-09-20T08:57:09.237Z,40.48
2018-09-20T08:59:38.604Z,40.10
2018-09-20T09:02:07.907Z,40.86
2018-09-20T09:04:37.189Z,41.85
2018-09-20T09:07:06.318Z,40.85
2018-09-20T09:09:35.597Z,40.12
2018-09-20T09:12:04.934Z,39.93
2018-09-20T09:14:34.188Z,40.18
2018-09-20T09:17:03.447Z,41.02
2018-09-20T09:19:32.915Z,41.18
2018-09-20T09:22:02.299Z,40.53
2018-09-20T09:24:31.467Z,40.67
2018-09-20T09:27:00.591Z,40.26
2018-09-20T09:29:29.682Z,41.06
2018-09-20T09:31:58.681Z,39.77
2018-09-20T09:34:27.666Z,39.27
2018-09-20T09:36:57.104Z,39.21
2018-09-20T09:39:26.216Z,38.28
2018-09-20T09:41:55.603Z,39.16
2018-09-20T09:44:24.708Z,38.08
2018-09-20T09:46:54.161Z,36.59
2018-09-20T09:49:23.284Z,37.22
2018-09-20T09:51:52.657Z,37.07
2018-09-20T09:54:22.269Z,36.56
2018-09-20T09:56:51.369Z,35.82
2018-09-20T09:59:20.299Z,35.29
2018-09-20T10:01:49.668Z,33.34
2018-09-20T10:04:18.839Z,31.61
2018-09-20T10:06:48.203Z,30.94
2018-09-20T10:09:17.252Z,29.36
2018-09-20T10:11:46.435Z,26.80
2018-09-20T10:14:15.723Z,25.28
2018-09-20T10:16:45.080Z,23.69
2018-09-20T10:19:14.397Z,21.41
2018-09-20T10:21:43.536Z,20.68
2018-09-20T10:24:12.919Z,19.61
2018-09-20T10:26:41.979Z,18.56
2018-09-20T10:29:11.288Z,17.20
2018-09-20T10:31:40.427Z,16.85
2018-09-20T10:34:09.675Z,15.03
2018-09-20T10:36:38.523Z,16.19
2018-09-20T10:39:10.456Z,15.75
2018-09-20T10:41:39.436Z,13.73
2018-09-20T10:44:08.866Z,14.86
2018-09-20T10:46:37.975Z,14.61
2018-09-20T10:49:07.420Z,13.92
2018-09-20T10:51:36.726Z,14.05
2018-09-20T10:54:06.120Z,12.82
2018-09-20T10:56:35.312Z,12.83
2018-09-20T10:59:04.320Z,12.20
2018-09-20T11:01:33.496Z,11.91
2018-09-20T11:04:02.747Z,11.82
2018-09-20T11:06:32.039Z,11.53
2018-09-20T11:09:01.279Z,11.62
2018-09-20T11:11:30.588Z,11.25
2018-09-20T11:13:59.932Z,11.84
2018-09-20T11:16:29.140Z,12.19
2018-09-20T11:18:58.389Z,11.83
2018-09-20T11:21:27.556Z,11.84
2018-09-20T11:23:56.780Z,10.87
2018-09-20T11:26:25.916Z,11.34
2018-09-20T11:28:55.164Z,11.11
2018-09-20T11:31:24.576Z,10.86
2018-09-20T11:33:53.880Z,10.87
2018-09-20T11:36:23.159Z,10.64
2018-09-20T11:38:52.187Z,10.37
2018-09-20T11:41:21.564Z,10.61
2018-09-20T11:43:51.016Z,10.19
2018-09-20T11:46:20.009Z,9.74
2018-09-20T11:48:49.098Z,9.73
2018-09-20T11:51:18.494Z,9.34
2018-09-20T11:53:47.567Z,10.03
2018-09-20T11:56:16.842Z,9.61
2018-09-20T11:58:45.787Z,9.64
2018-09-20T12:01:14.994Z,9.93
2018-09-20T12:03:44.287Z,9.68
2018-09-20T12:06:13.640Z,9.97
2018-09-20T12:08:43.091Z,9.62
2018-09-20T12:11:12.492Z,9.82
2018-09-20T12:13:41.734Z,10.37
2018-09-20T12:16:11.079Z,10.18
2018-09-20T12:18:40.289Z,9.53
2018-09-20T12:21:09.556Z,9.68
2018-09-20T12:23:38.892Z,9.58
2018-09-20T12:26:07.899Z,10.03
2018-09-20T12:28:37.080Z,10.01
2018-09-20T12:31:06.131Z,10.27
2018-09-20T12:33:35.268Z,10.37
2018-09-20T12:36:04.603Z,10.67
2018-09-20T12:38:33.913Z,10.78
2018-09-20T12:41:03.091Z,10.72
2018-09-20T12:43:32.320Z,10.10
2018-09-20T12:46:01.765Z,10.00
2018-09-20T12:48:30.934Z,10.31
2018-09-20T12:51:00.135Z,10.95
2018-09-20T12:53:29.435Z,11.38
2018-09-20T12:55:58.572Z,11.67
2018-09-20T12:58:32.727Z,11.09
2018-09-20T13:01:02.010Z,10.89
2018-09-20T13:03:31.339Z,11.00
2018-09-20T13:06:00.700Z,11.10
2018-09-20T13:08:30.047Z,11.54
2018-09-20T13:10:59.201Z,11.17
2018-09-20T13:13:28.494Z,11.62
2018-09-20T13:15:57.684Z,12.19
2018-09-20T13:18:27.000Z,12.74
2018-09-20T13:20:56.364Z,13.79
2018-09-20T13:23:25.548Z,14.57
2018-09-20T13:25:54.612Z,15.09
2018-09-20T13:28:23.545Z,15.49
2018-09-20T13:30:52.967Z,16.11
2018-09-20T13:33:21.951Z,18.01
2018-09-20T13:35:51.370Z,18.49
2018-09-20T13:38:20.423Z,19.06
2018-09-20T13:40:49.559Z,19.28
2018-09-20T13:43:19.059Z,19.93
2018-09-20T13:45:48.131Z,21.26
2018-09-20T13:48:17.507Z,21.69
2018-09-20T13:50:46.658Z,21.04
2018-09-20T13:53:15.952Z,21.86
2018-09-20T13:55:45.452Z,22.24
2018-09-20T13:58:14.639Z,23.04
2018-09-20T14:00:43.788Z,23.43
2018-09-20T14:03:13.043Z,24.81
2018-09-20T14:05:42.065Z,24.77
2018-09-20T14:08:10.992Z,24.46
2018-09-20T14:10:40.037Z,24.24
2018-09-20T14:13:09.127Z,24.33
2018-09-20T14:15:38.425Z,25.08
2018-09-20T14:18:07.715Z,25.52
2018-09-20T14:20:36.913Z,25.12
2018-09-20T14:23:06.137Z,25.49
2018-09-20T14:25:35.474Z,26.55
2018-09-20T14:28:04.803Z,26.05
2018-09-20T14:30:34.124Z,26.01
2018-09-20T14:33:03.412Z,25.60
2018-09-20T14:35:32.532Z,25.51
2018-09-20T14:38:01.805Z,25.69
2018-09-20T14:40:31.147Z,26.27
2018-09-20T14:43:00.499Z,26.80
2018-09-20T14:45:29.740Z,26.49
2018-09-20T14:47:59.108Z,25.76
2018-09-20T14:50:28.336Z,26.07
2018-09-20T14:52:57.206Z,25.60
2018-09-20T14:55:26.463Z,26.31
2018-09-20T14:57:55.986Z,26.18
2018-09-20T15:00:25.604Z,25.67
2018-09-20T15:02:54.752Z,25.59
2018-09-20T15:05:24.145Z,25.44
2018-09-20T15:07:53.384Z,24.80
2018-09-20T15:10:22.371Z,24.65
2018-09-20T15:12:51.671Z,25.42
2018-09-20T15:15:20.701Z,27.21
2018-09-20T15:17:50.024Z,25.68
2018-09-20T15:20:19.317Z,27.32
2018-09-20T15:22:48.815Z,26.70
2018-09-20T15:25:18.221Z,26.77
2018-09-20T15:27:47.243Z,27.67
2018-09-20T15:30:16.663Z,27.90
2018-09-20T15:32:45.912Z,26.69
2018-09-20T15:35:15.177Z,26.75
2018-09-20T15:37:44.365Z,27.14
2018-09-20T15:40:13.552Z,27.27
2018-09-20T15:42:42.499Z,26.69
2018-09-20T15:45:11.809Z,27.49
2018-09-20T15:47:41.147Z,27.16
2018-09-20T15:50:10.575Z,28.38
2018-09-20T15:52:39.750Z,28.32
2018-09-20T15:55:08.932Z,27.68
2018-09-20T15:57:38.456Z,28.39
2018-09-20T16:00:07.900Z,28.40
2018-09-20T16:02:36.968Z,28.77
2018-09-20T16:05:06.180Z,28.96
2018-09-20T16:07:35.285Z,29.04
2018-09-20T16:10:04.616Z,29.64
2018-09-20T16:12:34.039Z,29.89
2018-09-20T16:15:03.482Z,31.14
2018-09-20T16:17:32.795Z,30.93
2018-09-20T16:20:02.255Z,32.06
2018-09-20T16:22:31.392Z,32.98
2018-09-20T16:25:00.672Z,33.26
2018-09-20T16:27:29.870Z,32.90
2018-09-20T16:31:20.519Z,30.76
2018-09-20T16:36:18.064Z,31.25
2018-09-20T16:38:55.187Z,33.25
2018-09-20T16:41:41.994Z,33.21
2018-09-20T16:44:11.295Z,32.55
2018-09-20T16:46:40.544Z,32.82
2018-09-20T16:49:10.011Z,32.36
2018-09-20T16:51:39.349Z,33.34
2018-09-20T16:54:08.559Z,33.36
2018-09-20T16:56:37.899Z,32.22
2018-09-20T16:59:07.099Z,32.37
2018-09-20T17:01:36.261Z,32.18
2018-09-20T17:04:05.675Z,32.95
2018-09-20T17:06:34.687Z,33.38
2018-09-20T17:09:05.168Z,34.27
2018-09-20T17:11:34.395Z,34.41
2018-09-20T17:14:03.768Z,34.28
2018-09-20T17:16:32.986Z,35.19
2018-09-20T17:19:02.207Z,34.38
2018-09-20T17:21:31.199Z,33.92
2018-09-20T17:24:00.778Z,34.35
2018-09-20T17:26:30.032Z,34.93
2018-09-20T17:28:59.419Z,34.89
2018-09-20T17:31:28.643Z,36.30
2018-09-20T17:33:58.004Z,36.28
2018-09-20T17:36:27.852Z,37.47
2018-09-20T17:38:57.859Z,36.24
2018-09-20T17:41:30.278Z,37.38
2018-09-20T17:44:02.371Z,36.19
2018-09-20T17:46:31.368Z,37.08
2018-09-20T17:49:00.511Z,37.07
2018-09-20T17:51:30.639Z,38.01
2018-09-20T17:54:01.640Z,38.44
2018-09-20T17:56:32.530Z,38.69
2018-09-20T17:59:02.239Z,39.13
2018-09-20T18:01:31.897Z,40.10
2018-09-20T18:04:01.720Z,40.42
2018-09-20T18:06:31.120Z,41.14
2018-09-20T18:09:00.914Z,40.35
2018-09-20T18:11:30.371Z,40.48
2018-09-20T18:13:59.859Z,40.43
2018-09-20T18:16:28.766Z,40.85
2018-09-20T18:18:57.891Z,41.33
2018-09-20T18:21:27.236Z,41.79
2018-09-20T18:23:56.485Z,42.38
2018-09-20T18:26:26.325Z,42.80
2018-09-20T18:28:55.799Z,43.16
2018-09-20T18:31:25.363Z,44.09
2018-09-20T18:33:54.866Z,43.90
2018-09-20T18:36:24.161Z,43.80
2018-09-20T18:38:58.439Z,43.91
2018-09-20T18:41:27.828Z,44.73
2018-09-20T18:43:57.224Z,44.03
2018-09-20T18:46:26.238Z,44.74
2018-09-20T18:48:56.612Z,45.11
2018-09-20T18:51:25.796Z,46.22
2018-09-20T18:53:55.403Z,45.16
2018-09-20T18:56:24.489Z,45.31
2018-09-20T18:58:53.830Z,44.53
2018-09-20T19:01:23.212Z,44.45
2018-09-20T19:03:52.591Z,44.39
2018-09-20T19:06:22.703Z,44.61
2018-09-20T19:08:52.623Z,44.51
2018-09-20T19:11:22.080Z,45.45
2018-09-20T19:13:51.140Z,45.57
2018-09-20T19:16:20.247Z,45.75
2018-09-20T19:18:50.034Z,44.79
2018-09-20T19:21:19.248Z,45.12
2018-09-20T19:23:48.563Z,45.63
2018-09-20T19:26:18.416Z,46.04
2018-09-20T19:28:48.762Z,45.32
2018-09-20T19:31:18.013Z,44.83
2018-09-20T19:33:48.003Z,44.86
2018-09-20T19:36:17.043Z,45.89
2018-09-20T19:38:46.416Z,45.82
2018-09-20T19:41:15.395Z,46.15
2018-09-20T19:43:44.783Z,45.35
2018-09-20T19:46:14.064Z,46.77
2018-09-20T19:48:43.259Z,46.46
2018-09-20T19:51:12.439Z,47.05
2018-09-20T19:53:41.659Z,46.86
2018-09-20T19:56:11.045Z,47.46
2018-09-20T19:58:40.295Z,47.35
2018-09-20T20:01:09.229Z,46.91
2018-09-20T20:03:38.356Z,47.67
2018-09-20T20:06:07.380Z,48.64
2018-09-20T20:08:36.672Z,48.76
2018-09-20T20:11:05.968Z,49.17
2018-09-20T20:13:34.949Z,49.06
2018-09-20T20:16:04.157Z,48.65
2018-09-20T20:18:33.402Z,48.09
2018-09-20T20:21:02.949Z,48.24
2018-09-20T20:23:32.356Z,49.02
2018-09-20T20:26:01.896Z,48.76
2018-09-20T20:28:31.412Z,47.62
2018-09-20T20:31:00.701Z,48.80
2018-09-20T20:33:29.814Z,48.94
2018-09-20T20:35:58.611Z,48.50
2018-09-20T20:38:27.964Z,48.56
2018-09-20T20:40:56.983Z,49.93
2018-09-20T20:43:26.279Z,49.36
2018-09-20T20:45:55.475Z,48.99
2018-09-20T20:48:24.736Z,49.86
2018-09-20T20:50:54.035Z,50.47
2018-09-20T20:53:22.944Z,50.94
2018-09-20T20:55:52.120Z,51.13
2018-09-20T20:58:21.270Z,50.86
2018-09-20T21:00:50.666Z,51.07
2018-09-20T21:03:19.902Z,51.93
2018-09-20T21:05:48.861Z,50.99
2018-09-20T21:08:18.247Z,51.26
2018-09-20T21:10:47.457Z,51.34
2018-09-20T21:13:16.738Z,50.83
2018-09-20T21:15:46.103Z,51.03
2018-09-20T21:18:15.563Z,51.05
2018-09-20T21:20:44.904Z,50.18
2018-09-20T21:23:14.107Z,49.92
2018-09-20T21:25:43.256Z,51.00
2018-09-20T21:28:12.496Z,50.60
2018-09-20T21:30:41.497Z,50.78
2018-09-20T21:33:10.841Z,51.43
2018-09-20T21:35:39.975Z,50.93
2018-09-20T21:38:08.981Z,51.82
2018-09-20T21:40:38.095Z,52.93
2018-09-20T21:43:07.207Z,53.97
2018-09-20T21:45:36.191Z,54.33
2018-09-20T21:48:05.704Z,55.15
2018-09-20T21:50:34.833Z,54.53
2018-09-20T21:53:04.156Z,55.01
2018-09-20T21:55:33.071Z,55.50
2018-09-20T21:58:02.184Z,55.71
2018-09-20T22:00:31.520Z,56.46
2018-09-20T22:03:03.607Z,56.91
2018-09-20T22:05:34.111Z,56.45
2018-09-20T22:08:03.328Z,56.51
2018-09-20T22:10:32.852Z,57.41
2018-09-20T22:13:02.152Z,56.79
2018-09-20T22:15:31.364Z,56.22
2018-09-20T22:18:00.676Z,56.33
2018-09-20T22:20:31.213Z,55.94
2018-09-20T22:23:00.523Z,55.13
2018-09-20T22:25:29.755Z,55.12
2018-09-20T22:27:58.995Z,54.75
2018-09-20T22:30:28.308Z,55.42
2018-09-20T22:32:57.652Z,55.29
2018-09-20T22:35:26.815Z,55.61
2018-09-20T22:37:56.191Z,55.46
2018-09-20T22:40:25.256Z,56.95
2018-09-20T22:42:54.255Z,56.33
2018-09-20T22:45:23.416Z,57.29
2018-09-20T22:47:52.631Z,57.50
2018-09-20T22:50:21.603Z,55.94
2018-09-20T22:52:50.668Z,55.51
2018-09-20T22:55:19.928Z,55.28
2018-09-20T22:57:49.136Z,55.58
2018-09-20T23:00:23.355Z,55.87
2018-09-20T23:02:54.116Z,55.04
2018-09-20T23:05:23.423Z,55.80
2018-09-20T23:07:52.663Z,56.59
2018-09-20T23:10:21.857Z,56.50
2018-09-20T23:12:51.047Z,56.54
2018-09-20T23:15:20.348Z,57.14
2018-09-20T23:17:49.311Z,57.65
2018-09-20T23:20:18.759Z,57.34
2018-09-20T23:22:47.786Z,56.68
2018-09-20T23:25:16.761Z,56.99
2018-09-20T23:27:45.984Z,57.57
2018-09-20T23:30:15.432Z,58.84
2018-09-20T23:32:44.663Z,58.04
2018-09-20T23:35:14.019Z,57.14
2018-09-20T23:37:43.372Z,57.34
2018-09-20T23:40:12.570Z,58.18
2018-09-20T23:42:41.639Z,59.02
2018-09-20T23:45:10.623Z,59.46
2018-09-20T23:47:39.955Z,60.41
2018-09-20T23:50:09.247Z,60.72
2018-09-20T23:52:38.608Z,60.81
2018-09-20T23:55:07.592Z,61.33
2018-09-20T23:57:36.980Z,61.79
